Martin, Kentucky
Current Conditions -  °F | °C
As of 11:35 AM on Monday 26 Jan 2015 (Local Time) from KPBX Reporting Station
Light Snow Light Snow  
Wind Chill: 17°   Ceiling: 700
Heat Index: 28°   Visibility: 1.5mi
Dew Point: 26°   Wind: 13mph
Humidity: 92%   Direction: 290°WNW
Pressure: 29.8"   Gusts: NA
Location:  37.57°N, 82.75°W
Report Text: KPBX 261635Z AUTO 29011KT 1 1/2SM -SN OVC007 M02/M03 A2980 RMK AO2 T10231034
Loading
Personal Weather Stations






























Interactive Weather Map New forecast layout! Learn more

10-Day Weather Forecast

Advertisements
Track Severe Weather on mobile